createdAt,value
2018-11-01T00:02:46.456Z,99.54
2018-11-01T00:05:50.815Z,100.00
2018-11-01T00:08:55.179Z,100.00
2018-11-01T00:11:59.588Z,100.00
2018-11-01T00:15:03.965Z,99.77
2018-11-01T00:18:08.337Z,98.88
2018-11-01T00:21:12.707Z,99.82
2018-11-01T00:24:17.096Z,100.00
2018-11-01T00:27:21.518Z,100.00
2018-11-01T00:30:25.880Z,100.00
2018-11-01T00:33:30.264Z,100.00
2018-11-01T00:36:34.664Z,100.00
2018-11-01T00:39:39.020Z,100.00
2018-11-01T00:42:44.229Z,100.00
2018-11-01T00:45:48.588Z,100.00
2018-11-01T00:48:52.960Z,99.81
2018-11-01T00:51:57.312Z,99.84
2018-11-01T00:55:01.662Z,99.33
2018-11-01T00:58:06.366Z,99.26
2018-11-01T01:01:10.824Z,99.37
2018-11-01T01:04:15.256Z,99.60
2018-11-01T01:07:19.640Z,99.93
2018-11-01T01:10:24.012Z,100.00
2018-11-01T01:13:28.360Z,100.00
2018-11-01T01:16:32.777Z,100.00
2018-11-01T01:19:37.251Z,100.00
2018-11-01T01:22:42.660Z,99.85
2018-11-01T01:25:47.016Z,99.83
2018-11-01T01:28:51.409Z,99.70
2018-11-01T01:31:55.834Z,100.00
2018-11-01T01:35:00.191Z,100.00
2018-11-01T01:38:04.561Z,99.84
2018-11-01T01:41:08.952Z,100.00
2018-11-01T01:44:13.422Z,100.00
2018-11-01T01:47:17.809Z,100.00
2018-11-01T01:50:22.279Z,100.00
2018-11-01T01:53:26.616Z,100.00
2018-11-01T01:56:30.976Z,100.00
2018-11-01T01:59:35.364Z,99.87
2018-11-01T02:02:41.508Z,99.41
2018-11-01T02:05:45.851Z,99.36
2018-11-01T02:08:50.264Z,98.98
2018-11-01T02:11:54.758Z,98.34
2018-11-01T02:14:58.999Z,98.35
2018-11-01T02:18:03.356Z,98.50
2018-11-01T02:21:07.808Z,98.35
2018-11-01T02:24:12.307Z,98.47
2018-11-01T02:27:16.701Z,98.05
2018-11-01T02:30:21.050Z,97.92
2018-11-01T02:33:25.401Z,98.14
2018-11-01T02:36:29.820Z,98.61
2018-11-01T02:39:34.181Z,99.31
2018-11-01T02:42:38.732Z,100.00
2018-11-01T02:45:43.071Z,100.00
2018-11-01T02:48:47.431Z,100.00
2018-11-01T02:51:51.801Z,100.00
2018-11-01T02:54:56.168Z,100.00
2018-11-01T02:58:00.521Z,100.00
2018-11-01T03:01:05.070Z,100.00
2018-11-01T03:04:09.456Z,100.00
2018-11-01T03:07:13.908Z,100.00
2018-11-01T03:10:18.261Z,100.00
2018-11-01T03:13:22.648Z,100.00
2018-11-01T03:16:27.008Z,100.00
2018-11-01T03:19:31.384Z,100.00
2018-11-01T03:22:35.755Z,100.00
2018-11-01T03:25:40.122Z,100.00
2018-11-01T03:28:44.566Z,100.00
2018-11-01T03:31:48.918Z,100.00
2018-11-01T03:34:53.329Z,100.00
2018-11-01T03:37:57.705Z,100.00
2018-11-01T03:41:02.056Z,100.00
2018-11-01T03:44:06.452Z,100.00
2018-11-01T03:47:10.869Z,100.00
2018-11-01T03:50:15.232Z,100.00
2018-11-01T03:53:19.655Z,99.83
2018-11-01T03:56:23.977Z,98.87
2018-11-01T03:59:28.340Z,99.17
2018-11-01T04:02:32.712Z,99.17
2018-11-01T04:05:37.090Z,99.57
2018-11-01T04:08:41.432Z,99.66
2018-11-01T04:11:45.795Z,97.91
2018-11-01T04:14:50.152Z,96.13
2018-11-01T04:17:54.897Z,95.86
2018-11-01T04:20:59.261Z,97.34
2018-11-01T04:24:03.663Z,95.94
2018-11-01T04:27:07.944Z,96.67
2018-11-01T04:30:12.285Z,96.23
2018-11-01T04:33:16.674Z,96.45
2018-11-01T04:36:20.975Z,94.75
2018-11-01T04:39:25.196Z,95.04
2018-11-01T04:42:29.545Z,95.31
2018-11-01T04:45:33.909Z,92.83
2018-11-01T04:48:38.225Z,92.87
2018-11-01T04:51:42.540Z,90.82
2018-11-01T04:54:46.853Z,89.30
2018-11-01T04:57:51.142Z,88.86
2018-11-01T05:00:55.609Z,91.19
2018-11-01T05:03:59.931Z,91.33
2018-11-01T05:07:04.247Z,90.55
2018-11-01T05:10:10.281Z,89.17
2018-11-01T05:13:14.600Z,90.33
2018-11-01T05:16:18.933Z,92.53
2018-11-01T05:19:23.234Z,92.48
2018-11-01T05:22:27.542Z,92.16
2018-11-01T05:25:31.843Z,93.26
2018-11-01T05:28:36.542Z,90.80
2018-11-01T05:31:40.856Z,88.00
2018-11-01T05:34:45.164Z,85.50
2018-11-01T05:37:49.552Z,80.49
2018-11-01T05:40:53.862Z,80.57
2018-11-01T05:43:58.139Z,81.46
2018-11-01T05:47:02.451Z,83.71
2018-11-01T05:50:07.373Z,85.00
2018-11-01T05:53:11.688Z,86.47
2018-11-01T05:56:16.015Z,87.94
2018-11-01T05:59:20.315Z,83.35
2018-11-01T06:02:29.178Z,83.70
2018-11-01T06:05:33.553Z,86.31
2018-11-01T06:08:40.416Z,86.61
2018-11-01T06:11:44.746Z,88.17
2018-11-01T06:14:49.084Z,86.05
2018-11-01T06:17:53.460Z,82.91
2018-11-01T06:20:57.844Z,84.92
2018-11-01T06:24:02.251Z,86.71
2018-11-01T06:27:06.949Z,83.79
2018-11-01T06:30:14.587Z,85.07
2018-11-01T06:33:18.968Z,84.53
2018-11-01T06:36:23.404Z,83.22
2018-11-01T06:39:27.724Z,83.51
2018-11-01T06:42:32.086Z,81.92
2018-11-01T06:45:36.437Z,81.40
2018-11-01T06:48:40.796Z,82.33
2018-11-01T06:51:45.092Z,80.96
2018-11-01T06:54:49.389Z,79.54
2018-11-01T06:57:53.792Z,79.49
2018-11-01T07:00:58.105Z,79.71
2018-11-01T07:04:02.713Z,80.21
2018-11-01T07:07:07.333Z,79.74
2018-11-01T07:10:15.619Z,79.79
2018-11-01T07:13:19.962Z,78.36
2018-11-01T07:16:24.300Z,77.76
2018-11-01T07:19:30.544Z,78.84
2018-11-01T07:22:34.909Z,78.33
2018-11-01T07:25:40.372Z,76.05
2018-11-01T07:28:44.613Z,74.08
2018-11-01T07:31:49.794Z,71.48
2018-11-01T07:34:54.546Z,70.42
2018-11-01T07:37:59.225Z,68.86
2018-11-01T07:41:03.556Z,66.44
2018-11-01T07:44:08.665Z,65.64
2018-11-01T07:47:13.033Z,65.32
2018-11-01T07:50:17.357Z,65.04
2018-11-01T07:53:21.769Z,65.45
2018-11-01T07:56:26.116Z,65.71
2018-11-01T07:59:30.438Z,66.08
2018-11-01T08:02:34.761Z,66.22
2018-11-01T08:05:39.103Z,65.68
2018-11-01T08:08:43.530Z,67.37
2018-11-01T08:11:47.957Z,67.02
2018-11-01T08:14:52.289Z,66.52
2018-11-01T08:17:56.611Z,66.48
2018-11-01T08:21:01.176Z,64.76
2018-11-01T08:24:05.626Z,64.30
2018-11-01T08:27:10.020Z,63.30
2018-11-01T08:30:15.643Z,63.84
2018-11-01T08:33:19.981Z,64.38
2018-11-01T08:36:24.839Z,62.54
2018-11-01T08:39:29.449Z,63.48
2018-11-01T08:42:33.792Z,61.88
2018-11-01T08:45:41.126Z,67.31
2018-11-01T08:48:45.508Z,70.45
2018-11-01T08:51:49.992Z,72.14
2018-11-01T08:54:54.388Z,72.69
2018-11-01T08:57:58.789Z,72.93
2018-11-01T09:01:03.308Z,73.35
2018-11-01T09:04:07.820Z,76.74
2018-11-01T09:07:12.164Z,80.56
2018-11-01T09:10:17.523Z,81.74
2018-11-01T09:13:21.979Z,80.44
2018-11-01T09:16:26.336Z,77.20
2018-11-01T09:19:30.800Z,78.39
2018-11-01T09:22:35.341Z,78.91
2018-11-01T09:25:39.844Z,79.85
2018-11-01T09:28:44.263Z,75.27
2018-11-01T09:31:48.666Z,76.44
2018-11-01T09:34:53.144Z,76.88
2018-11-01T09:37:57.532Z,77.76
2018-11-01T09:41:01.949Z,75.24
2018-11-01T09:44:06.442Z,71.39
2018-11-01T09:47:11.508Z,71.07
2018-11-01T09:50:15.732Z,68.49
2018-11-01T09:53:20.336Z,70.22
2018-11-01T09:56:24.778Z,68.54
2018-11-01T09:59:29.416Z,66.69
2018-11-01T10:02:33.871Z,68.11
2018-11-01T10:05:38.279Z,67.47
2018-11-01T10:08:42.701Z,68.58
2018-11-01T10:11:47.140Z,68.65
2018-11-01T10:14:51.601Z,70.09
2018-11-01T10:17:56.361Z,69.97
2018-11-01T10:21:00.502Z,70.92
2018-11-01T10:24:05.160Z,67.35
2018-11-01T10:27:19.512Z,66.71
2018-11-01T10:30:16.836Z,74.32
2018-11-01T10:33:21.383Z,74.54
2018-11-01T10:36:25.817Z,73.48
2018-11-01T10:39:30.211Z,69.45
2018-11-01T10:42:34.865Z,68.51
2018-11-01T10:45:41.245Z,64.30
2018-11-01T10:48:47.474Z,66.91
2018-11-01T10:51:52.107Z,75.21
2018-11-01T10:54:56.537Z,72.35
2018-11-01T10:58:01.086Z,75.35
2018-11-01T11:01:11.762Z,79.01
2018-11-01T11:04:17.108Z,77.39
2018-11-01T11:07:22.565Z,77.07
2018-11-01T11:10:28.107Z,82.12
2018-11-01T11:13:32.564Z,78.51
2018-11-01T11:16:37.282Z,77.51
2018-11-01T11:19:42.071Z,76.46
2018-11-01T11:22:46.633Z,77.33
2018-11-01T11:25:51.245Z,75.57
2018-11-01T11:28:56.064Z,75.89
2018-11-01T11:32:01.052Z,74.21
2018-11-01T11:35:06.630Z,72.55
2018-11-01T11:38:11.180Z,73.07
2018-11-01T11:41:15.712Z,72.70
2018-11-01T11:44:20.241Z,71.75
2018-11-01T11:47:24.791Z,71.89
2018-11-01T11:50:29.281Z,72.64
2018-11-01T11:53:34.054Z,72.36
2018-11-01T11:56:39.086Z,72.16
2018-11-01T11:59:43.679Z,72.47
2018-11-01T12:02:48.217Z,73.01
2018-11-01T12:05:52.912Z,73.50
2018-11-01T12:08:57.660Z,73.59
2018-11-01T12:12:02.181Z,73.34
2018-11-01T12:15:07.740Z,72.70
2018-11-01T12:18:12.751Z,74.62
2018-11-01T12:21:17.879Z,75.10
2018-11-01T12:24:22.223Z,73.55
2018-11-01T12:27:26.751Z,78.37
2018-11-01T12:30:31.537Z,79.89
2018-11-01T12:33:36.390Z,79.61
2018-11-01T12:36:40.793Z,79.32
2018-11-01T12:39:45.536Z,78.60
2018-11-01T12:42:51.197Z,76.86
2018-11-01T12:45:55.862Z,78.39
2018-11-01T12:49:00.417Z,79.59
2018-11-01T12:52:05.028Z,80.13
2018-11-01T12:55:09.493Z,79.70
2018-11-01T12:58:14.460Z,81.80
2018-11-01T13:01:18.879Z,79.68
2018-11-01T13:04:24.205Z,80.25
2018-11-01T13:07:28.684Z,77.19
2018-11-01T13:10:33.197Z,80.48
2018-11-01T13:13:37.980Z,80.30
2018-11-01T13:16:42.466Z,80.90
2018-11-01T13:19:46.972Z,82.31
2018-11-01T13:22:51.510Z,82.42
2018-11-01T13:25:55.991Z,84.16
2018-11-01T13:29:00.230Z,82.50
2018-11-01T13:32:04.761Z,83.97
2018-11-01T13:35:09.299Z,81.40
2018-11-01T13:38:13.737Z,82.82
2018-11-01T13:41:18.332Z,82.25
2018-11-01T13:44:23.012Z,80.00
2018-11-01T13:47:28.472Z,81.44
2018-11-01T13:50:33.049Z,82.62
2018-11-01T13:53:37.315Z,83.27
2018-11-01T13:56:43.106Z,83.12
2018-11-01T13:59:47.637Z,82.52
2018-11-01T14:02:52.165Z,81.54
2018-11-01T14:05:56.964Z,79.88
2018-11-01T14:09:01.374Z,79.01
2018-11-01T14:12:06.208Z,77.64
2018-11-01T14:15:11.870Z,78.27
2018-11-01T14:18:16.201Z,76.86
2018-11-01T14:21:20.648Z,76.06
2018-11-01T14:24:25.335Z,74.84
2018-11-01T14:27:29.882Z,74.94
2018-11-01T14:30:34.420Z,72.81
2018-11-01T14:33:38.809Z,71.99
2018-11-01T14:36:43.244Z,73.65
2018-11-01T14:39:47.636Z,73.83
2018-11-01T14:42:52.071Z,73.48
2018-11-01T14:45:56.516Z,74.34
2018-11-01T14:49:01.243Z,72.91
2018-11-01T14:52:06.063Z,73.34
2018-11-01T14:55:13.469Z,73.39
2018-11-01T14:58:18.616Z,75.93
2018-11-01T15:01:21.916Z,77.79
2018-11-01T15:04:26.493Z,76.13
2018-11-01T15:07:31.060Z,74.13
2018-11-01T15:10:35.580Z,76.08
2018-11-01T15:13:40.029Z,76.71
2018-11-01T15:16:44.535Z,76.32
2018-11-01T15:19:48.964Z,78.37
2018-11-01T15:22:53.663Z,80.50
2018-11-01T15:25:59.616Z,81.88
2018-11-01T15:29:04.091Z,82.83
2018-11-01T15:32:08.534Z,82.14
2018-11-01T15:35:13.291Z,80.13
2018-11-01T15:38:18.132Z,82.48
2018-11-01T15:41:24.216Z,84.55
2018-11-01T15:44:29.738Z,87.02
2018-11-01T15:47:34.474Z,87.57
2018-11-01T15:50:38.925Z,86.85
2018-11-01T15:53:43.558Z,85.97
2018-11-01T15:56:48.352Z,87.43
2018-11-01T15:59:54.275Z,89.62
2018-11-01T16:02:58.755Z,91.48
2018-11-01T16:06:04.050Z,94.39
2018-11-01T16:09:11.857Z,95.64
2018-11-01T16:12:16.366Z,97.51
2018-11-01T16:15:21.024Z,98.83
2018-11-01T16:18:26.063Z,100.00
2018-11-01T16:21:30.751Z,100.00
2018-11-01T16:24:35.240Z,100.00
2018-11-01T16:27:40.347Z,100.00
2018-11-01T16:30:45.594Z,100.00
2018-11-01T16:33:50.039Z,100.00
2018-11-01T16:36:54.668Z,100.00
2018-11-01T16:39:59.147Z,100.00
2018-11-01T16:43:03.871Z,100.00
2018-11-01T16:46:08.240Z,100.00
2018-11-01T16:49:12.698Z,100.00
2018-11-01T16:52:17.296Z,100.00
2018-11-01T16:55:21.709Z,100.00
2018-11-01T16:58:26.132Z,100.00
2018-11-01T17:01:30.853Z,100.00
2018-11-01T17:04:35.263Z,100.00
2018-11-01T17:07:39.836Z,100.00
2018-11-01T17:10:44.299Z,100.00
2018-11-01T17:13:50.048Z,100.00
2018-11-01T17:16:54.748Z,100.00
2018-11-01T17:19:59.204Z,100.00
2018-11-01T17:23:03.593Z,100.00
2018-11-01T17:26:08.045Z,100.00
2018-11-01T17:29:12.782Z,100.00
2018-11-01T17:32:17.180Z,100.00
2018-11-01T17:35:21.808Z,100.00
2018-11-01T17:38:26.594Z,100.00
2018-11-01T17:41:30.950Z,100.00
2018-11-01T17:44:35.371Z,100.00
2018-11-01T17:47:40.033Z,100.00
2018-11-01T17:50:45.236Z,100.00
2018-11-01T17:53:49.677Z,100.00
2018-11-01T17:56:54.354Z,100.00
2018-11-01T17:59:58.796Z,100.00
2018-11-01T18:03:03.186Z,100.00
2018-11-01T18:06:07.603Z,100.00
2018-11-01T18:09:14.260Z,100.00
2018-11-01T18:12:18.686Z,100.00
2018-11-01T18:15:23.044Z,100.00
2018-11-01T18:18:28.160Z,100.00
2018-11-01T18:21:32.685Z,100.00
2018-11-01T18:24:37.270Z,100.00
2018-11-01T18:27:41.926Z,100.00
2018-11-01T18:30:46.672Z,100.00
2018-11-01T18:33:51.144Z,100.00
2018-11-01T18:36:55.612Z,100.00
2018-11-01T18:40:00.367Z,100.00
2018-11-01T18:43:05.521Z,100.00
2018-11-01T18:46:09.997Z,100.00
2018-11-01T18:49:14.969Z,100.00
2018-11-01T18:52:19.424Z,100.00
2018-11-01T18:55:24.202Z,100.00
2018-11-01T18:58:29.781Z,100.00
2018-11-01T19:01:34.511Z,100.00
2018-11-01T19:04:38.714Z,100.00
2018-11-01T19:07:43.839Z,100.00
2018-11-01T19:10:48.434Z,100.00
2018-11-01T19:13:53.223Z,100.00
2018-11-01T19:16:58.004Z,100.00
2018-11-01T19:20:02.677Z,100.00
2018-11-01T19:23:07.260Z,100.00
2018-11-01T19:26:12.577Z,100.00
2018-11-01T19:29:16.938Z,100.00
2018-11-01T19:32:21.427Z,100.00
2018-11-01T19:35:26.901Z,100.00
2018-11-01T19:38:31.417Z,100.00
2018-11-01T19:41:36.610Z,100.00
2018-11-01T19:44:41.345Z,100.00
2018-11-01T19:47:47.501Z,100.00
2018-11-01T19:50:51.990Z,100.00
2018-11-01T19:53:56.625Z,100.00
2018-11-01T19:57:01.210Z,100.00
2018-11-01T20:00:07.820Z,100.00
2018-11-01T20:03:12.237Z,100.00
2018-11-01T20:06:16.924Z,100.00
2018-11-01T20:09:21.430Z,100.00
2018-11-01T20:12:25.771Z,100.00
2018-11-01T20:21:04.072Z,100.00
2018-11-01T20:24:08.438Z,100.00
2018-11-01T20:27:13.172Z,100.00
2018-11-01T20:30:17.927Z,100.00
2018-11-01T20:33:22.337Z,100.00
2018-11-01T20:36:26.988Z,100.00
2018-11-01T20:39:31.619Z,100.00
2018-11-01T20:42:36.340Z,100.00
2018-11-01T20:45:41.402Z,100.00
2018-11-01T20:48:45.995Z,100.00
2018-11-01T20:51:50.932Z,100.00
2018-11-01T20:54:55.789Z,100.00
2018-11-01T20:58:01.253Z,100.00
2018-11-01T21:01:05.886Z,100.00
2018-11-01T21:04:10.559Z,100.00
2018-11-01T21:07:15.843Z,100.00
2018-11-01T21:10:20.420Z,100.00
2018-11-01T21:13:24.855Z,100.00
2018-11-01T21:16:29.278Z,100.00
2018-11-01T21:19:33.838Z,100.00
2018-11-01T21:22:38.295Z,100.00
2018-11-01T21:25:42.736Z,100.00
2018-11-01T21:28:48.040Z,100.00
2018-11-01T21:31:52.486Z,100.00
2018-11-01T21:34:57.397Z,100.00
2018-11-01T21:38:01.800Z,100.00
2018-11-01T21:41:07.008Z,100.00
2018-11-01T21:44:11.927Z,100.00
2018-11-01T21:47:16.480Z,100.00
2018-11-01T21:50:20.997Z,100.00
2018-11-01T21:53:25.585Z,100.00
2018-11-01T21:56:29.898Z,100.00
2018-11-01T21:59:34.337Z,100.00
2018-11-01T22:02:39.060Z,100.00
2018-11-01T22:05:43.617Z,100.00
2018-11-01T22:08:48.209Z,100.00
2018-11-01T22:11:53.892Z,100.00
2018-11-01T22:14:58.591Z,100.00
2018-11-01T22:18:03.659Z,100.00
2018-11-01T22:21:08.152Z,100.00
2018-11-01T22:24:12.616Z,100.00
2018-11-01T22:27:17.072Z,100.00
2018-11-01T22:30:21.620Z,100.00
2018-11-01T22:33:26.023Z,100.00
2018-11-01T22:36:30.623Z,100.00
2018-11-01T22:39:35.131Z,100.00
2018-11-01T22:42:39.658Z,100.00
2018-11-01T22:45:44.249Z,100.00
2018-11-01T22:48:48.761Z,100.00
2018-11-01T22:51:53.711Z,100.00
2018-11-01T22:54:58.591Z,100.00
2018-11-01T22:58:03.000Z,100.00
2018-11-01T23:01:07.596Z,100.00
2018-11-01T23:04:12.053Z,100.00
2018-11-01T23:07:16.416Z,100.00
2018-11-01T23:10:20.866Z,100.00
2018-11-01T23:13:25.470Z,100.00
2018-11-01T23:16:29.837Z,100.00
2018-11-01T23:19:35.160Z,100.00
2018-11-01T23:22:39.612Z,100.00
2018-11-01T23:25:43.993Z,100.00
2018-11-01T23:28:48.360Z,100.00
2018-11-01T23:31:52.799Z,100.00
2018-11-01T23:34:57.147Z,100.00
2018-11-01T23:38:07.131Z,100.00
2018-11-01T23:41:17.064Z,100.00
2018-11-01T23:44:26.833Z,100.00
2018-11-01T23:47:36.566Z,100.00
2018-11-01T23:50:47.091Z,100.00
2018-11-01T23:53:52.296Z,100.00
2018-11-01T23:56:56.815Z,100.00
